Time,TemperatureF,DewpointF,PressureIn,WindDirection,WindDirectionDegrees,WindSpeedMPH,WindSpeedGustMPH,Humidity,HourlyPrecipIn,Conditions,Clouds,dailyrainin,SoftwareType,DateUTC
2013-04-09 00:05:00,62.3,52.8,30.02,SE,125,2.0,9.0,71,0.00,,,0.00,Wunderground v.1.15,2013-04-09 04:05:00,
2013-04-09 00:14:00,62.4,53.3,30.02,South,184,2.0,9.0,72,0.00,,,0.00,Wunderground v.1.15,2013-04-09 04:14:00,
2013-04-09 00:19:00,62.5,53.3,30.02,SSE,168,2.0,2.0,72,0.00,,,0.00,Wunderground v.1.15,2013-04-09 04:19:00,
2013-04-09 00:24:00,62.4,53.6,30.02,SSW,192,2.0,9.0,73,0.00,,,0.00,Wunderground v.1.15,2013-04-09 04:24:00,
2013-04-09 00:29:00,62.4,53.6,30.02,SE,132,2.0,2.0,73,0.00,,,0.00,Wunderground v.1.15,2013-04-09 04:29:00,
2013-04-09 00:34:00,62.3,53.9,30.03,South,191,2.0,9.0,74,0.00,,,0.00,Wunderground v.1.15,2013-04-09 04:34:00,
2013-04-09 00:40:00,62.2,53.8,30.03,SSW,203,2.0,2.0,74,0.00,,,0.00,Wunderground v.1.15,2013-04-09 04:40:00,
2013-04-09 00:49:00,62.1,54.1,30.04,SW,219,2.0,2.0,75,0.00,,,0.00,Wunderground v.1.15,2013-04-09 04:49:00,
2013-04-09 00:59:00,62.0,54.3,30.04,South,191,2.0,2.0,76,0.00,,,0.00,Wunderground v.1.15,2013-04-09 04:59:00,
2013-04-09 01:04:00,61.9,54.2,30.04,SSW,206,2.0,9.0,76,0.00,,,0.00,Wunderground v.1.15,2013-04-09 05:04:00,
2013-04-09 01:09:00,61.9,54.2,30.04,SW,219,2.0,9.0,76,0.00,,,0.00,Wunderground v.1.15,2013-04-09 05:09:00,
2013-04-09 01:19:00,61.8,54.5,30.04,SSW,211,2.0,9.0,77,0.00,,,0.00,Wunderground v.1.15,2013-04-09 05:19:00,
2013-04-09 01:24:00,61.7,54.4,30.04,SW,233,2.0,9.0,77,0.00,,,0.00,Wunderground v.1.15,2013-04-09 05:24:00,
2013-04-09 01:29:00,61.6,54.7,30.04,SSW,212,2.0,2.0,78,0.00,,,0.00,Wunderground v.1.15,2013-04-09 05:29:00,
2013-04-09 01:34:00,61.6,54.7,30.04,SSE,154,2.0,9.0,78,0.00,,,0.00,Wunderground v.1.15,2013-04-09 05:34:00,
2013-04-09 01:40:00,61.5,54.9,30.04,WSW,243,2.0,9.0,79,0.00,,,0.00,Wunderground v.1.15,2013-04-09 05:40:00,
2013-04-09 01:49:00,61.4,54.8,30.04,South,177,2.0,2.0,79,0.00,,,0.00,Wunderground v.1.15,2013-04-09 05:49:00,
2013-04-09 01:54:00,61.3,55.1,30.04,West,278,1.0,9.0,80,0.00,,,0.00,Wunderground v.1.15,2013-04-09 05:54:00,
2013-04-09 01:59:00,61.2,55.0,30.04,SW,225,1.0,1.0,80,0.00,,,0.00,Wunderground v.1.15,2013-04-09 05:59:00,
2013-04-09 02:04:00,61.2,55.0,30.04,WSW,240,1.0,3.0,80,0.00,,,0.00,Wunderground v.1.15,2013-04-09 06:04:00,
2013-04-09 02:14:00,61.3,55.4,30.04,South,173,2.0,9.0,81,0.00,,,0.00,Wunderground v.1.15,2013-04-09 06:14:00,
2013-04-09 02:19:00,61.2,55.3,30.04,WSW,250,1.0,9.0,81,0.00,,,0.00,Wunderground v.1.15,2013-04-09 06:19:00,
2013-04-09 02:24:00,61.1,55.2,30.04,SW,218,1.0,9.0,81,0.00,,,0.00,Wunderground v.1.15,2013-04-09 06:24:00,
2013-04-09 02:29:00,61.0,55.5,30.04,SSW,197,2.0,9.0,82,0.00,,,0.00,Wunderground v.1.15,2013-04-09 06:29:00,
2013-04-09 02:34:00,61.0,55.5,30.04,WSW,246,2.0,9.0,82,0.00,,,0.00,Wunderground v.1.15,2013-04-09 06:34:00,
2013-04-09 02:44:00,60.8,55.6,30.04,SW,224,2.0,9.0,83,0.00,,,0.00,Wunderground v.1.15,2013-04-09 06:44:00,
2013-04-09 02:49:00,60.7,55.5,30.04,SW,215,2.0,9.0,83,0.00,,,0.00,Wunderground v.1.15,2013-04-09 06:49:00,
2013-04-09 02:54:00,60.6,55.4,30.04,SW,217,2.0,9.0,83,0.00,,,0.00,Wunderground v.1.15,2013-04-09 06:54:00,
2013-04-09 03:04:00,60.6,55.7,30.04,SSW,213,2.0,9.0,84,0.00,,,0.00,Wunderground v.1.15,2013-04-09 07:04:00,
2013-04-09 03:09:00,60.6,55.7,30.04,SW,233,1.0,9.0,84,0.00,,,0.00,Wunderground v.1.15,2013-04-09 07:09:00,
2013-04-09 03:14:00,60.6,55.7,30.04,SSW,210,2.0,9.0,84,0.00,,,0.00,Wunderground v.1.15,2013-04-09 07:14:00,
2013-04-09 03:19:00,60.6,55.7,30.04,SW,220,2.0,9.0,84,0.00,,,0.00,Wunderground v.1.15,2013-04-09 07:19:00,
2013-04-09 03:24:00,60.4,55.5,30.04,WSW,243,2.0,9.0,84,0.00,,,0.00,Wunderground v.1.15,2013-04-09 07:24:00,
2013-04-09 03:34:00,60.3,55.8,30.04,WSW,244,2.0,9.0,85,0.00,,,0.00,Wunderground v.1.15,2013-04-09 07:34:00,
2013-04-09 03:39:00,60.3,55.8,30.04,SW,221,2.0,9.0,85,0.00,,,0.00,Wunderground v.1.15,2013-04-09 07:39:00,
2013-04-09 03:44:00,60.2,55.7,30.04,South,186,2.0,9.0,85,0.00,,,0.00,Wunderground v.1.15,2013-04-09 07:44:00,
2013-04-09 03:49:00,60.1,55.6,30.04,SW,229,2.0,2.0,85,0.00,,,0.00,Wunderground v.1.15,2013-04-09 07:49:00,
2013-04-09 03:59:00,60.0,55.5,30.04,SW,216,1.0,9.0,85,0.00,,,0.00,Wunderground v.1.15,2013-04-09 07:59:00,
2013-04-09 04:04:00,59.9,55.4,30.05,WSW,247,2.0,9.0,85,0.00,,,0.00,Wunderground v.1.15,2013-04-09 08:04:00,
2013-04-09 04:09:00,59.8,55.6,30.05,SSW,200,2.0,2.0,86,0.00,,,0.00,Wunderground v.1.15,2013-04-09 08:09:00,
2013-04-09 04:15:00,59.6,55.4,30.05,South,186,1.0,9.0,86,0.00,,,0.00,Wunderground v.1.15,2013-04-09 08:15:00,
2013-04-09 04:24:00,59.3,55.1,30.05,SSW,195,1.0,9.0,86,0.00,,,0.00,Wunderground v.1.15,2013-04-09 08:24:00,
2013-04-09 04:30:00,59.2,55.3,30.05,SSW,199,1.0,1.0,87,0.00,,,0.00,Wunderground v.1.15,2013-04-09 08:30:00,
2013-04-09 04:39:00,58.9,55.0,30.06,South,184,1.0,9.0,87,0.00,,,0.00,Wunderground v.1.15,2013-04-09 08:39:00,
2013-04-09 04:44:00,58.7,55.2,30.06,SSW,193,1.0,9.0,88,0.00,,,0.00,Wunderground v.1.15,2013-04-09 08:44:00,
2013-04-09 04:49:00,58.5,55.0,30.06,SSW,193,1.0,9.0,88,0.00,,,0.00,Wunderground v.1.15,2013-04-09 08:49:00,
2013-04-09 04:54:00,58.3,54.8,30.06,SSW,200,1.0,9.0,88,0.00,,,0.00,Wunderground v.1.15,2013-04-09 08:54:00,
2013-04-09 04:59:00,58.2,54.7,30.06,West,262,1.0,1.0,88,0.00,,,0.00,Wunderground v.1.15,2013-04-09 08:59:00,
2013-04-09 05:09:00,57.9,54.7,30.06,SSW,212,0.0,9.0,89,0.00,,,0.00,Wunderground v.1.15,2013-04-09 09:09:00,
2013-04-09 05:14:00,57.8,54.6,30.06,SSW,213,0.0,9.0,89,0.00,,,0.00,Wunderground v.1.15,2013-04-09 09:14:00,
2013-04-09 05:19:00,57.7,54.8,30.06,SW,224,0.0,9.0,90,0.00,,,0.00,Wunderground v.1.15,2013-04-09 09:19:00,
2013-04-09 05:29:00,57.3,53.8,30.06,SW,224,0.0,9.0,88,0.00,,,0.00,Wunderground v.1.15,2013-04-09 09:29:00,
2013-04-09 05:34:00,57.0,53.8,30.07,SSW,212,0.0,9.0,89,0.00,,,0.00,Wunderground v.1.15,2013-04-09 09:34:00,
2013-04-09 05:39:00,56.8,53.9,30.07,SW,221,0.0,9.0,90,0.00,,,0.00,Wunderground v.1.15,2013-04-09 09:39:00,
2013-04-09 05:44:00,56.6,54.0,30.07,SW,221,0.0,9.0,91,0.00,,,0.00,Wunderground v.1.15,2013-04-09 09:44:00,
2013-04-09 05:54:00,56.3,53.7,30.07,NW,305,1.0,9.0,91,0.00,,,0.00,Wunderground v.1.15,2013-04-09 09:54:00,
2013-04-09 05:59:00,56.2,53.6,30.07,NW,305,1.0,1.0,91,0.00,,,0.00,Wunderground v.1.15,2013-04-09 09:59:00,
2013-04-09 06:04:00,56.0,53.4,30.07,WSW,246,0.0,9.0,91,0.00,,,0.00,Wunderground v.1.15,2013-04-09 10:04:00,
2013-04-09 06:14:00,55.7,53.1,30.07,WSW,246,1.0,9.0,91,0.00,,,0.00,Wunderground v.1.15,2013-04-09 10:14:00,
2013-04-09 06:19:00,55.6,53.3,30.08,SW,233,1.0,9.0,92,0.00,,,0.00,Wunderground v.1.15,2013-04-09 10:19:00,
2013-04-09 06:29:00,55.5,53.5,30.08,South,191,1.0,1.0,93,0.00,,,0.00,Wunderground v.1.15,2013-04-09 10:29:00,
2013-04-09 06:34:00,55.6,53.6,30.08,SW,226,1.0,2.0,93,0.00,,,0.00,Wunderground v.1.15,2013-04-09 10:34:00,
2013-04-09 06:44:00,55.9,54.2,30.08,SW,226,1.0,9.0,94,0.00,,,0.00,Wunderground v.1.15,2013-04-09 10:44:00,
2013-04-09 06:49:00,56.0,54.3,30.09,SW,229,1.0,9.0,94,0.00,,,0.00,Wunderground v.1.15,2013-04-09 10:49:00,
2013-04-09 06:54:00,56.1,54.1,30.09,WSW,242,1.0,9.0,93,0.00,,,0.00,Wunderground v.1.15,2013-04-09 10:54:00,
2013-04-09 06:59:00,56.2,54.2,30.09,WSW,238,1.0,9.0,93,0.00,,,0.00,Wunderground v.1.15,2013-04-09 10:59:00,
2013-04-09 07:09:00,56.2,54.2,30.09,SW,221,1.0,1.0,93,0.00,,,0.00,Wunderground v.1.15,2013-04-09 11:09:00,
2013-04-09 07:14:00,56.2,54.2,30.09,WSW,239,1.0,2.0,93,0.00,,,0.00,Wunderground v.1.15,2013-04-09 11:14:00,
2013-04-09 07:19:00,56.2,53.9,30.09,SW,233,1.0,9.0,92,0.00,,,0.00,Wunderground v.1.15,2013-04-09 11:19:00,
2013-04-09 07:29:00,56.2,54.2,30.09,SW,236,1.0,9.0,93,0.00,,,0.00,Wunderground v.1.15,2013-04-09 11:29:00,
2013-04-09 07:34:00,56.3,54.0,30.09,SW,224,1.0,9.0,92,0.00,,,0.00,Wunderground v.1.15,2013-04-09 11:34:00,
2013-04-09 07:40:00,56.2,53.9,30.09,SW,216,1.0,9.0,92,0.00,,,0.00,Wunderground v.1.15,2013-04-09 11:40:00,
2013-04-09 07:49:00,56.3,54.3,30.10,West,263,1.0,9.0,93,0.00,,,0.00,Wunderground v.1.15,2013-04-09 11:49:00,
2013-04-09 07:54:00,56.4,54.4,30.10,SSW,200,1.0,9.0,93,0.00,,,0.00,Wunderground v.1.15,2013-04-09 11:54:00,
2013-04-09 07:59:00,56.6,54.6,30.10,WSW,245,1.0,1.0,93,0.00,,,0.00,Wunderground v.1.15,2013-04-09 11:59:00,
2013-04-09 08:09:00,57.5,55.2,30.10,WSW,254,1.0,9.0,92,0.00,,,0.00,Wunderground v.1.15,2013-04-09 12:09:00,
2013-04-09 08:14:00,58.1,55.5,30.10,SW,228,1.0,9.0,91,0.00,,,0.00,Wunderground v.1.15,2013-04-09 12:14:00,
2013-04-09 08:19:00,59.0,55.8,30.10,WSW,248,2.0,9.0,89,0.00,,,0.00,Wunderground v.1.15,2013-04-09 12:19:00,
2013-04-09 08:24:00,59.7,56.1,30.10,WSW,248,2.0,9.0,88,0.00,,,0.00,Wunderground v.1.15,2013-04-09 12:24:00,
2013-04-09 08:29:00,60.3,56.1,30.10,SSW,207,2.0,9.0,86,0.00,,,0.00,Wunderground v.1.15,2013-04-09 12:29:00,
2013-04-09 08:39:00,61.6,56.7,30.10,NW,313,2.0,9.0,84,0.00,,,0.00,Wunderground v.1.15,2013-04-09 12:39:00,
2013-04-09 08:44:00,62.1,56.9,30.10,West,259,2.0,9.0,83,0.00,,,0.00,Wunderground v.1.15,2013-04-09 12:44:00,
2013-04-09 08:49:00,62.7,57.1,30.10,SW,236,2.0,9.0,82,0.00,,,0.00,Wunderground v.1.15,2013-04-09 12:49:00,
2013-04-09 08:54:00,63.3,57.0,30.10,West,261,2.0,9.0,80,0.00,,,0.00,Wunderground v.1.15,2013-04-09 12:54:00,
2013-04-09 09:04:00,64.2,57.2,30.10,WSW,257,2.0,9.0,78,0.00,,,0.00,Wunderground v.1.15,2013-04-09 13:04:00,
2013-04-09 09:09:00,64.6,57.6,30.10,SW,231,2.0,9.0,78,0.00,,,0.00,Wunderground v.1.15,2013-04-09 13:09:00,
2013-04-09 09:14:00,65.1,57.7,30.11,West,278,2.0,9.0,77,0.00,,,0.00,Wunderground v.1.15,2013-04-09 13:14:00,
2013-04-09 09:24:00,66.0,57.8,30.11,WNW,295,2.0,3.0,75,0.00,,,0.00,Wunderground v.1.15,2013-04-09 13:24:00,
2013-04-09 09:29:00,66.7,57.4,30.11,SSW,206,2.0,9.0,72,0.00,,,0.00,Wunderground v.1.15,2013-04-09 13:29:00,
2013-04-09 09:39:00,67.3,58.0,30.11,SW,221,2.0,2.0,72,0.00,,,0.00,Wunderground v.1.15,2013-04-09 13:39:00,
2013-04-09 09:44:00,68.0,57.8,30.11,West,270,2.0,9.0,70,0.00,,,0.00,Wunderground v.1.15,2013-04-09 13:44:00,
2013-04-09 09:49:00,68.3,57.3,30.10,WSW,238,2.0,9.0,68,0.00,,,0.00,Wunderground v.1.15,2013-04-09 13:49:00,
2013-04-09 09:55:00,68.8,57.8,30.10,West,281,3.0,9.0,68,0.00,,,0.00,Wunderground v.1.15,2013-04-09 13:55:00,
2013-04-09 10:05:00,69.5,57.6,30.11,NW,306,3.0,9.0,66,0.00,,,0.00,Wunderground v.1.15,2013-04-09 14:05:00,
2013-04-09 10:10:00,69.9,58.0,30.11,WSW,238,3.0,3.0,66,0.00,,,0.00,Wunderground v.1.15,2013-04-09 14:10:00,
2013-04-09 10:16:00,70.4,58.1,30.11,SW,217,2.0,9.0,65,0.00,,,0.00,Wunderground v.1.15,2013-04-09 14:16:00,
2013-04-09 10:25:00,71.4,58.6,30.11,WSW,251,3.0,9.0,64,0.00,,,0.00,Wunderground v.1.15,2013-04-09 14:25:00,
2013-04-09 10:30:00,72.1,57.9,30.11,SW,233,2.0,9.0,61,0.00,,,0.00,Wunderground v.1.15,2013-04-09 14:30:00,
2013-04-09 10:35:00,72.7,58.9,30.11,NW,307,2.0,9.0,62,0.00,,,0.00,Wunderground v.1.15,2013-04-09 14:35:00,
2013-04-09 10:45:00,73.4,58.2,30.11,SSE,164,1.0,9.0,59,0.00,,,0.00,Wunderground v.1.15,2013-04-09 14:45:00,
2013-04-09 10:50:00,73.6,58.9,30.11,SW,235,2.0,9.0,60,0.00,,,0.00,Wunderground v.1.15,2013-04-09 14:50:00,
2013-04-09 10:55:00,74.0,58.8,30.11,SSW,204,2.0,9.0,59,0.00,,,0.00,Wunderground v.1.15,2013-04-09 14:55:00,
2013-04-09 11:00:00,74.6,58.4,30.11,SSE,161,2.0,2.0,57,0.00,,,0.00,Wunderground v.1.15,2013-04-09 15:00:00,
2013-04-09 11:06:00,75.0,58.7,30.11,South,171,1.0,9.0,57,0.00,,,0.00,Wunderground v.1.15,2013-04-09 15:06:00,
2013-04-09 11:15:00,75.7,58.4,30.11,SW,231,2.0,9.0,55,0.00,,,0.00,Wunderground v.1.15,2013-04-09 15:15:00,
2013-04-09 11:20:00,76.2,57.3,30.11,WSW,244,2.0,2.0,52,0.00,,,0.00,Wunderground v.1.15,2013-04-09 15:20:00,
2013-04-09 11:25:00,76.7,58.3,30.11,South,177,2.0,3.0,53,0.00,,,0.00,Wunderground v.1.15,2013-04-09 15:25:00,
2013-04-09 11:35:00,77.8,58.8,30.10,WSW,252,2.0,9.0,52,0.00,,,0.00,Wunderground v.1.15,2013-04-09 15:35:00,
2013-04-09 11:40:00,78.2,58.0,30.10,South,185,2.0,2.0,50,0.00,,,0.00,Wunderground v.1.15,2013-04-09 15:40:00,
2013-04-09 11:45:00,78.6,57.8,30.10,SW,226,2.0,4.0,49,0.00,,,0.00,Wunderground v.1.15,2013-04-09 15:45:00,
2013-04-09 11:50:00,78.8,58.0,30.10,SSE,156,2.0,9.0,49,0.00,,,0.00,Wunderground v.1.15,2013-04-09 15:50:00,
2013-04-09 11:55:00,79.1,58.3,30.10,South,186,2.0,9.0,49,0.00,,,0.00,Wunderground v.1.15,2013-04-09 15:55:00,
2013-04-09 12:06:00,79.8,55.9,30.09,SW,229,3.0,9.0,44,0.00,,,0.00,Wunderground v.1.15,2013-04-09 16:06:00,
2013-04-09 12:15:00,80.7,56.1,30.08,WSW,243,2.0,6.0,43,0.00,,,0.00,Wunderground v.1.15,2013-04-09 16:15:00,
2013-04-09 12:20:00,81.4,56.1,30.08,NE,42,1.0,6.0,42,0.00,,,0.00,Wunderground v.1.15,2013-04-09 16:20:00,
2013-04-09 12:25:00,81.6,56.3,30.08,NW,306,1.0,6.0,42,0.00,,,0.00,Wunderground v.1.15,2013-04-09 16:25:00,
2013-04-09 12:30:00,81.8,55.1,30.08,West,280,2.0,6.0,40,0.00,,,0.00,Wunderground v.1.15,2013-04-09 16:30:00,
2013-04-09 12:40:00,82.1,55.4,30.08,North,4,2.0,6.0,40,0.00,,,0.00,Wunderground v.1.15,2013-04-09 16:40:00,
2013-04-09 12:45:00,82.3,54.9,30.08,West,275,2.0,6.0,39,0.00,,,0.00,Wunderground v.1.15,2013-04-09 16:45:00,
2013-04-09 12:50:00,82.4,55.0,30.08,SW,214,2.0,6.0,39,0.00,,,0.00,Wunderground v.1.15,2013-04-09 16:50:00,
2013-04-09 13:00:00,82.0,54.6,30.07,SSW,207,2.0,6.0,39,0.00,,,0.00,Wunderground v.1.15,2013-04-09 17:00:00,
2013-04-09 13:05:00,82.1,54.7,30.07,South,172,2.0,6.0,39,0.00,,,0.00,Wunderground v.1.15,2013-04-09 17:05:00,
2013-04-09 13:10:00,82.9,55.4,30.07,South,186,2.0,6.0,39,0.00,,,0.00,Wunderground v.1.15,2013-04-09 17:10:00,
2013-04-09 13:15:00,83.2,55.0,30.07,SSW,193,2.0,6.0,38,0.00,,,0.00,Wunderground v.1.15,2013-04-09 17:15:00,
2013-04-09 13:25:00,83.2,54.2,30.07,NW,317,3.0,6.0,37,0.00,,,0.00,Wunderground v.1.15,2013-04-09 17:25:00,
2013-04-09 13:30:00,83.2,55.7,30.07,SW,214,3.0,3.0,39,0.00,,,0.00,Wunderground v.1.15,2013-04-09 17:30:00,
2013-04-09 13:35:00,83.1,55.6,30.07,WSW,252,3.0,6.0,39,0.00,,,0.00,Wunderground v.1.15,2013-04-09 17:35:00,
2013-04-09 13:40:00,83.4,55.8,30.07,ESE,110,2.0,6.0,39,0.00,,,0.00,Wunderground v.1.15,2013-04-09 17:40:00,
2013-04-09 13:50:00,84.1,54.3,30.06,West,280,2.0,6.0,36,0.00,,,0.00,Wunderground v.1.15,2013-04-09 17:50:00,
2013-04-09 13:55:00,83.8,54.7,30.06,SW,222,3.0,6.0,37,0.00,,,0.00,Wunderground v.1.15,2013-04-09 17:55:00,
2013-04-09 14:00:00,83.5,54.5,30.05,South,189,2.0,2.0,37,0.00,,,0.00,Wunderground v.1.15,2013-04-09 18:00:00,
2013-04-09 14:10:00,84.1,55.7,30.05,WSW,249,3.0,6.0,38,0.00,,,0.00,Wunderground v.1.15,2013-04-09 18:10:00,
2013-04-09 14:15:00,84.2,56.6,30.05,SSW,204,3.0,6.0,39,0.00,,,0.00,Wunderground v.1.15,2013-04-09 18:15:00,
2013-04-09 14:20:00,84.1,55.0,30.05,West,259,2.0,2.0,37,0.00,,,0.00,Wunderground v.1.15,2013-04-09 18:20:00,
2013-04-09 14:25:00,84.1,56.5,30.05,West,271,1.0,6.0,39,0.00,,,0.00,Wunderground v.1.15,2013-04-09 18:25:00,
2013-04-09 14:35:00,84.4,56.7,30.04,WNW,295,1.0,6.0,39,0.00,,,0.00,Wunderground v.1.15,2013-04-09 18:35:00,
2013-04-09 14:40:00,84.8,56.4,30.04,South,191,2.0,6.0,38,0.00,,,0.00,Wunderground v.1.15,2013-04-09 18:40:00,
2013-04-09 14:45:00,84.7,57.0,30.04,WNW,300,3.0,6.0,39,0.00,,,0.00,Wunderground v.1.15,2013-04-09 18:45:00,
2013-04-09 14:50:00,85.0,55.8,30.04,SSW,203,2.0,6.0,37,0.00,,,0.00,Wunderground v.1.15,2013-04-09 18:50:00,
2013-04-09 15:00:00,84.3,55.9,30.03,SSW,193,2.0,6.0,38,0.00,,,0.00,Wunderground v.1.15,2013-04-09 19:00:00,
2013-04-09 15:05:00,84.4,55.3,30.03,SSE,158,3.0,6.0,37,0.00,,,0.00,Wunderground v.1.15,2013-04-09 19:05:00,
2013-04-09 15:10:00,84.2,55.8,30.03,South,183,3.0,3.0,38,0.00,,,0.00,Wunderground v.1.15,2013-04-09 19:10:00,
2013-04-09 15:20:00,83.7,54.7,30.03,ESE,114,3.0,6.0,37,0.00,,,0.00,Wunderground v.1.15,2013-04-09 19:20:00,
2013-04-09 15:25:00,83.5,55.2,30.03,SSW,195,3.0,6.0,38,0.00,,,0.00,Wunderground v.1.15,2013-04-09 19:25:00,
2013-04-09 15:30:00,83.4,54.4,30.02,SSW,207,3.0,6.0,37,0.00,,,0.00,Wunderground v.1.15,2013-04-09 19:30:00,
2013-04-09 15:35:00,83.3,55.0,30.02,SSW,197,3.0,6.0,38,0.00,,,0.00,Wunderground v.1.15,2013-04-09 19:35:00,
2013-04-09 15:45:00,82.9,56.1,30.02,SW,214,3.0,6.0,40,0.00,,,0.00,Wunderground v.1.15,2013-04-09 19:45:00,
2013-04-09 15:50:00,82.9,55.4,30.02,South,188,2.0,2.0,39,0.00,,,0.00,Wunderground v.1.15,2013-04-09 19:50:00,
2013-04-09 15:55:00,82.9,54.0,30.02,WNW,300,2.0,6.0,37,0.00,,,0.00,Wunderground v.1.15,2013-04-09 19:55:00,
2013-04-09 16:00:00,83.1,54.9,30.01,SW,220,3.0,3.0,38,0.00,,,0.00,Wunderground v.1.15,2013-04-09 20:00:00,
2013-04-09 16:10:00,83.5,54.5,30.01,SSW,212,3.0,3.0,37,0.00,,,0.00,Wunderground v.1.15,2013-04-09 20:10:00,
2013-04-09 16:15:00,83.4,54.4,30.01,WSW,243,3.0,6.0,37,0.00,,,0.00,Wunderground v.1.15,2013-04-09 20:15:00,
2013-04-09 16:20:00,83.5,54.5,30.01,South,181,3.0,6.0,37,0.00,,,0.00,Wunderground v.1.15,2013-04-09 20:20:00,
2013-04-09 16:30:00,83.4,54.4,30.01,SW,228,3.0,6.0,37,0.00,,,0.00,Wunderground v.1.15,2013-04-09 20:30:00,
2013-04-09 16:35:00,83.4,55.1,30.01,West,268,3.0,6.0,38,0.00,,,0.00,Wunderground v.1.15,2013-04-09 20:35:00,
2013-04-09 16:40:00,83.2,55.0,30.01,WSW,247,3.0,3.0,38,0.00,,,0.00,Wunderground v.1.15,2013-04-09 20:40:00,
2013-04-09 16:50:00,83.1,54.9,30.01,SSW,205,4.0,6.0,38,0.00,,,0.00,Wunderground v.1.15,2013-04-09 20:50:00,
2013-04-09 17:00:00,83.1,55.6,30.00,WSW,256,3.0,3.0,39,0.00,,,0.00,Wunderground v.1.15,2013-04-09 21:00:00,
2013-04-09 17:05:00,83.1,54.9,30.00,WSW,248,3.0,6.0,38,0.00,,,0.00,Wunderground v.1.15,2013-04-09 21:05:00,
2013-04-09 17:10:00,83.1,54.9,30.00,SSW,212,4.0,6.0,38,0.00,,,0.00,Wunderground v.1.15,2013-04-09 21:10:00,
2013-04-09 17:15:00,83.1,54.9,30.00,South,181,4.0,6.0,38,0.00,,,0.00,Wunderground v.1.15,2013-04-09 21:15:00,
2013-04-09 17:25:00,83.6,55.3,30.00,SE,139,3.0,6.0,38,0.00,,,0.00,Wunderground v.1.15,2013-04-09 21:25:00,
2013-04-09 17:30:00,83.7,56.8,30.00,SSW,200,3.0,6.0,40,0.00,,,0.00,Wunderground v.1.15,2013-04-09 21:30:00,
2013-04-09 17:35:00,83.6,56.0,30.00,SSW,212,2.0,6.0,39,0.00,,,0.00,Wunderground v.1.15,2013-04-09 21:35:00,
2013-04-09 17:40:00,83.7,55.4,30.00,WSW,257,2.0,6.0,38,0.00,,,0.00,Wunderground v.1.15,2013-04-09 21:40:00,
2013-04-09 17:50:00,83.5,55.9,30.01,South,172,3.0,3.0,39,0.00,,,0.00,Wunderground v.1.15,2013-04-09 21:50:00,
2013-04-09 17:55:00,83.2,56.4,30.01,South,187,3.0,6.0,40,0.00,,,0.00,Wunderground v.1.15,2013-04-09 21:55:00,
2013-04-09 18:00:00,83.0,56.2,30.01,SSW,196,3.0,3.0,40,0.00,,,0.00,Wunderground v.1.15,2013-04-09 22:00:00,
2013-04-09 18:05:00,83.0,56.2,30.01,SW,227,3.0,6.0,40,0.00,,,0.00,Wunderground v.1.15,2013-04-09 22:05:00,
2013-04-09 18:15:00,82.7,55.9,30.01,SSW,207,3.0,6.0,40,0.00,,,0.00,Wunderground v.1.15,2013-04-09 22:15:00,
2013-04-09 18:20:00,82.3,56.2,30.01,South,189,3.0,3.0,41,0.00,,,0.00,Wunderground v.1.15,2013-04-09 22:20:00,
2013-04-09 18:25:00,82.0,56.0,30.01,SSW,208,3.0,6.0,41,0.00,,,0.00,Wunderground v.1.15,2013-04-09 22:25:00,
2013-04-09 18:30:00,81.8,55.8,30.01,West,271,3.0,6.0,41,0.00,,,0.00,Wunderground v.1.15,2013-04-09 22:30:00,
2013-04-09 18:35:00,81.6,55.6,30.01,SW,215,3.0,6.0,41,0.00,,,0.00,Wunderground v.1.15,2013-04-09 22:35:00,
2013-04-09 18:45:00,81.0,57.0,30.00,SSW,207,2.0,6.0,44,0.00,,,0.00,Wunderground v.1.15,2013-04-09 22:45:00,
2013-04-09 18:50:00,80.6,56.0,30.00,SSW,198,2.0,6.0,43,0.00,,,0.00,Wunderground v.1.15,2013-04-09 22:50:00,
2013-04-09 19:00:00,80.2,56.3,30.00,SSE,160,3.0,3.0,44,0.00,,,0.00,Wunderground v.1.15,2013-04-09 23:00:00,
2013-04-09 19:05:00,79.8,56.6,30.00,WSW,254,2.0,6.0,45,0.00,,,0.00,Wunderground v.1.15,2013-04-09 23:05:00,
2013-04-09 19:10:00,79.4,56.8,30.00,SW,230,2.0,6.0,46,0.00,,,0.00,Wunderground v.1.15,2013-04-09 23:10:00,
2013-04-09 19:15:00,78.9,57.0,30.00,SW,236,2.0,6.0,47,0.00,,,0.00,Wunderground v.1.15,2013-04-09 23:15:00,
2013-04-09 19:20:00,78.6,56.1,30.00,WSW,245,1.0,6.0,46,0.00,,,0.00,Wunderground v.1.15,2013-04-09 23:20:00,
2013-04-09 19:25:00,78.2,56.3,30.00,SSW,209,2.0,6.0,47,0.00,,,0.00,Wunderground v.1.15,2013-04-09 23:25:00,
2013-04-09 19:35:00,77.7,57.0,30.00,West,265,1.0,6.0,49,0.00,,,0.00,Wunderground v.1.15,2013-04-09 23:35:00,
2013-04-09 19:40:00,77.2,56.6,30.00,SSW,200,2.0,6.0,49,0.00,,,0.00,Wunderground v.1.15,2013-04-09 23:40:00,
2013-04-09 19:45:00,76.9,56.8,30.01,South,188,2.0,6.0,50,0.00,,,0.00,Wunderground v.1.15,2013-04-09 23:45:00,
2013-04-09 19:50:00,76.5,56.5,30.01,SSW,205,1.0,6.0,50,0.00,,,0.00,Wunderground v.1.15,2013-04-09 23:50:00,
2013-04-09 20:00:00,75.8,56.9,30.01,SW,228,1.0,6.0,52,0.00,,,0.00,Wunderground v.1.15,2013-04-10 00:00:00,
2013-04-09 20:05:00,75.4,56.5,30.01,SSW,196,1.0,6.0,52,0.00,,,0.00,Wunderground v.1.15,2013-04-10 00:05:00,
2013-04-09 20:10:00,75.0,57.2,30.01,SW,220,1.0,6.0,54,0.00,,,0.00,Wunderground v.1.15,2013-04-10 00:10:00,
2013-04-09 20:15:00,74.8,57.0,30.01,SW,231,2.0,6.0,54,0.00,,,0.00,Wunderground v.1.15,2013-04-10 00:15:00,
2013-04-09 20:20:00,74.6,56.9,30.01,SW,227,2.0,2.0,54,0.00,,,0.00,Wunderground v.1.15,2013-04-10 00:20:00,
2013-04-09 20:30:00,74.1,56.9,30.01,SW,224,1.0,1.0,55,0.00,,,0.00,Wunderground v.1.15,2013-04-10 00:30:00,
2013-04-09 20:35:00,73.8,57.1,30.01,SW,233,1.0,6.0,56,0.00,,,0.00,Wunderground v.1.15,2013-04-10 00:35:00,
2013-04-09 20:40:00,73.5,56.8,30.01,SSW,203,1.0,1.0,56,0.00,,,0.00,Wunderground v.1.15,2013-04-10 00:40:00,
2013-04-09 20:50:00,72.9,56.8,30.02,SW,231,1.0,6.0,57,0.00,,,0.00,Wunderground v.1.15,2013-04-10 00:50:00,
2013-04-09 20:55:00,72.6,57.0,30.02,SW,226,1.0,6.0,58,0.00,,,0.00,Wunderground v.1.15,2013-04-10 00:55:00,
2013-04-09 21:00:00,72.3,57.2,30.02,SSW,210,1.0,6.0,59,0.00,,,0.00,Wunderground v.1.15,2013-04-10 01:00:00,
2013-04-09 21:05:00,71.9,56.8,30.02,South,180,1.0,6.0,59,0.00,,,0.00,Wunderground v.1.15,2013-04-10 01:05:00,
2013-04-09 21:10:00,71.7,57.1,30.02,South,190,1.0,6.0,60,0.00,,,0.00,Wunderground v.1.15,2013-04-10 01:10:00,
2013-04-09 21:20:00,71.1,57.0,30.02,SSW,207,1.0,1.0,61,0.00,,,0.00,Wunderground v.1.15,2013-04-10 01:20:00,
2013-04-09 21:25:00,70.8,57.1,30.02,SSW,201,1.0,6.0,62,0.00,,,0.00,Wunderground v.1.15,2013-04-10 01:25:00,
2013-04-09 21:30:00,70.6,56.9,30.02,SSW,196,1.0,6.0,62,0.00,,,0.00,Wunderground v.1.15,2013-04-10 01:30:00,
2013-04-09 21:35:00,70.3,57.1,30.02,WSW,238,1.0,6.0,63,0.00,,,0.00,Wunderground v.1.15,2013-04-10 01:35:00,
2013-04-09 21:40:00,70.1,56.9,30.02,SW,220,1.0,6.0,63,0.00,,,0.00,Wunderground v.1.15,2013-04-10 01:40:00,
2013-04-09 21:50:00,69.9,56.7,30.03,SSW,194,1.0,6.0,63,0.00,,,0.00,Wunderground v.1.15,2013-04-10 01:50:00,
2013-04-09 21:55:00,69.8,57.1,30.03,SSW,203,1.0,6.0,64,0.00,,,0.00,Wunderground v.1.15,2013-04-10 01:55:00,
2013-04-09 22:00:00,69.7,56.5,30.03,SSW,193,1.0,6.0,63,0.00,,,0.00,Wunderground v.1.15,2013-04-10 02:00:00,
2013-04-09 22:10:00,69.6,56.9,30.03,SSW,193,1.0,6.0,64,0.00,,,0.00,Wunderground v.1.15,2013-04-10 02:10:00,
2013-04-09 22:16:00,69.5,56.8,30.03,SSW,193,1.0,6.0,64,0.00,,,0.00,Wunderground v.1.15,2013-04-10 02:16:00,
2013-04-09 22:25:00,69.3,56.6,30.03,SSE,154,1.0,6.0,64,0.00,,,0.00,Wunderground v.1.15,2013-04-10 02:25:00,
2013-04-09 22:35:00,69.0,56.7,30.03,SW,227,1.0,6.0,65,0.00,,,0.00,Wunderground v.1.15,2013-04-10 02:35:00,
2013-04-09 22:40:00,68.9,56.6,30.03,SSW,210,1.0,6.0,65,0.00,,,0.00,Wunderground v.1.15,2013-04-10 02:40:00,
2013-04-09 22:45:00,68.8,56.6,30.02,WSW,250,1.0,6.0,65,0.00,,,0.00,Wunderground v.1.15,2013-04-10 02:45:00,
2013-04-09 22:50:00,68.7,56.5,30.02,WSW,250,1.0,1.0,65,0.00,,,0.00,Wunderground v.1.15,2013-04-10 02:50:00,
2013-04-09 22:55:00,68.6,56.8,30.02,SW,214,1.0,6.0,66,0.00,,,0.00,Wunderground v.1.15,2013-04-10 02:55:00,
2013-04-09 23:05:00,68.4,56.6,30.02,SW,220,1.0,6.0,66,0.00,,,0.00,Wunderground v.1.15,2013-04-10 03:05:00,
2013-04-09 23:10:00,68.3,56.9,30.02,WSW,246,1.0,1.0,67,0.00,,,0.00,Wunderground v.1.15,2013-04-10 03:10:00,
2013-04-09 23:15:00,68.2,56.8,30.01,SSW,197,1.0,6.0,67,0.00,,,0.00,Wunderground v.1.15,2013-04-10 03:15:00,
2013-04-09 23:20:00,68.2,56.8,30.01,SSW,195,1.0,6.0,67,0.00,,,0.00,Wunderground v.1.15,2013-04-10 03:20:00,
2013-04-09 23:25:00,68.1,56.7,30.01,South,172,1.0,6.0,67,0.00,,,0.00,Wunderground v.1.15,2013-04-10 03:25:00,
2013-04-09 23:35:00,67.8,56.9,30.01,SW,221,1.0,6.0,68,0.00,,,0.00,Wunderground v.1.15,2013-04-10 03:35:00,
2013-04-09 23:40:00,67.6,56.7,30.01,SW,225,1.0,1.0,68,0.00,,,0.00,Wunderground v.1.15,2013-04-10 03:40:00,
2013-04-09 23:45:00,67.6,56.7,30.01,WSW,252,1.0,2.0,68,0.00,,,0.00,Wunderground v.1.15,2013-04-10 03:45:00,
2013-04-09 23:55:00,67.3,56.8,30.01,SSW,200,1.0,6.0,69,0.00,,,0.00,Wunderground v.1.15,2013-04-10 03:55:00,